createdAt,value
2022-10-23T00:01:47.739Z,11.69
2022-10-23T00:04:18.082Z,11.71
2022-10-23T00:06:46.348Z,11.72
2022-10-23T00:09:16.967Z,11.71
2022-10-23T00:11:47.629Z,11.72
2022-10-23T00:14:17.352Z,11.72
2022-10-23T00:16:46.589Z,11.71
2022-10-23T00:19:14.465Z,11.70
2022-10-23T00:21:42.408Z,11.66
2022-10-23T00:26:44.609Z,11.62
2022-10-23T00:29:12.605Z,11.61
2022-10-23T00:31:40.513Z,11.60
2022-10-23T00:34:10.507Z,11.58
2022-10-23T00:36:38.558Z,11.55
2022-10-23T00:39:06.960Z,11.53
2022-10-23T00:41:37.017Z,11.49
2022-10-23T00:44:05.090Z,11.46
2022-10-23T00:46:33.530Z,11.42
2022-10-23T00:49:03.968Z,11.39
2022-10-23T00:51:36.063Z,11.38
2022-10-23T00:54:23.873Z,11.36
2022-10-23T00:56:54.855Z,11.34
2022-10-23T00:59:23.377Z,11.32
2022-10-23T01:01:51.990Z,11.30
2022-10-23T01:04:20.569Z,11.27
2022-10-23T01:06:53.693Z,11.23
2022-10-23T01:09:50.982Z,11.18
2022-10-23T01:12:30.966Z,11.09
2022-10-23T01:15:14.344Z,11.06
2022-10-23T01:17:56.567Z,11.06
2022-10-23T01:20:50.934Z,11.05
2022-10-23T01:24:01.185Z,11.02
2022-10-23T01:26:51.455Z,10.99
2022-10-23T01:29:19.926Z,10.96
2022-10-23T01:32:13.651Z,10.96
2022-10-23T01:34:41.478Z,10.93
2022-10-23T01:37:12.533Z,10.90
2022-10-23T01:39:45.718Z,10.88
2022-10-23T01:42:17.626Z,10.89
2022-10-23T01:44:52.090Z,10.88
2022-10-23T01:47:24.502Z,10.87
2022-10-23T01:50:02.969Z,10.84
2022-10-23T01:52:31.306Z,10.81
2022-10-23T01:55:01.426Z,10.77
2022-10-23T01:57:32.531Z,10.73
2022-10-23T02:00:07.361Z,10.67
2022-10-23T02:02:53.049Z,10.60
2022-10-23T02:05:25.163Z,10.58
2022-10-23T02:07:54.231Z,10.57
2022-10-23T02:10:27.704Z,10.58
2022-10-23T02:13:34.074Z,10.59
2022-10-23T02:16:06.502Z,10.59
2022-10-23T02:18:55.973Z,10.54
2022-10-23T02:21:57.951Z,10.45
2022-10-23T02:24:30.894Z,10.39
2022-10-23T02:27:06.387Z,10.33
2022-10-23T02:29:44.110Z,10.31
2022-10-23T02:32:14.916Z,10.32
2022-10-23T02:34:42.790Z,10.32
2022-10-23T02:37:11.706Z,10.32
2022-10-23T02:39:39.981Z,10.32
2022-10-23T02:42:30.585Z,10.28
2022-10-23T02:45:24.592Z,10.25
2022-10-23T02:48:01.574Z,10.23
2022-10-23T02:50:38.120Z,10.21
2022-10-23T02:53:25.118Z,10.21
2022-10-23T02:56:14.274Z,10.17
2022-10-23T02:58:47.707Z,10.19
2022-10-23T03:01:22.733Z,10.22
2022-10-23T03:03:53.830Z,10.21
2022-10-23T03:06:23.265Z,10.19
2022-10-23T03:09:05.544Z,10.18
2022-10-23T03:11:33.602Z,10.18
2022-10-23T03:14:01.898Z,10.16
2022-10-23T03:16:30.691Z,10.13
2022-10-23T03:18:58.697Z,10.09
2022-10-23T03:21:26.721Z,10.05
2022-10-23T03:23:54.711Z,10.02
2022-10-23T03:26:38.717Z,10.04
2022-10-23T03:29:06.607Z,10.02
2022-10-23T03:31:37.527Z,10.06
2022-10-23T03:34:11.005Z,10.09
2022-10-23T03:36:41.469Z,10.11
2022-10-23T03:39:10.144Z,10.13
2022-10-23T03:41:39.088Z,10.13
2022-10-23T03:44:07.099Z,10.13
2022-10-23T03:46:34.840Z,10.14
2022-10-23T03:49:02.902Z,10.17
2022-10-23T03:51:30.719Z,10.21
2022-10-23T03:53:58.645Z,10.18
2022-10-23T03:56:26.811Z,10.17
2022-10-23T03:58:54.725Z,10.17
2022-10-23T04:01:25.119Z,10.17
2022-10-23T04:03:53.190Z,10.14
2022-10-23T04:06:21.838Z,10.13
2022-10-23T04:08:50.228Z,10.16
2022-10-23T04:11:18.733Z,10.17
2022-10-23T04:13:47.499Z,10.18
2022-10-23T04:16:15.744Z,10.15
2022-10-23T04:18:45.514Z,10.15
2022-10-23T04:21:13.499Z,10.19
2022-10-23T04:23:41.782Z,10.24
2022-10-23T04:26:18.432Z,10.27
2022-10-23T04:28:46.206Z,10.23
2022-10-23T04:31:14.269Z,10.17
2022-10-23T04:33:43.288Z,10.16
2022-10-23T04:36:14.059Z,10.19
2022-10-23T04:38:41.955Z,10.19
2022-10-23T04:41:10.033Z,10.21
2022-10-23T04:43:37.937Z,10.26
2022-10-23T04:46:06.074Z,10.29
2022-10-23T04:48:35.181Z,10.29
2022-10-23T04:51:21.321Z,10.27
2022-10-23T04:54:09.656Z,10.27
2022-10-23T04:56:55.065Z,10.25
2022-10-23T04:59:22.971Z,10.26
2022-10-23T05:01:51.474Z,10.26
2022-10-23T05:04:19.666Z,10.25
2022-10-23T05:10:09.938Z,10.22
2022-10-23T05:12:48.420Z,10.18
2022-10-23T05:15:16.335Z,10.15
2022-10-23T05:17:46.970Z,10.13
2022-10-23T05:20:19.689Z,10.12
2022-10-23T05:22:50.255Z,10.09
2022-10-23T05:25:21.470Z,10.06
2022-10-23T05:27:53.609Z,10.05
2022-10-23T05:30:22.759Z,10.05
2022-10-23T05:32:54.620Z,10.06
2022-10-23T05:35:25.556Z,10.10
2022-10-23T05:37:54.200Z,10.13
2022-10-23T05:40:24.921Z,10.13
2022-10-23T05:42:59.279Z,10.10
2022-10-23T05:45:39.654Z,10.08
2022-10-23T05:48:35.379Z,10.08
2022-10-23T05:51:40.135Z,10.08
2022-10-23T05:54:27.918Z,10.12
2022-10-23T05:57:14.138Z,10.17
2022-10-23T05:59:45.638Z,10.25
2022-10-23T06:02:28.981Z,10.31
2022-10-23T06:05:03.803Z,10.28
2022-10-23T06:07:50.491Z,10.24
2022-10-23T06:10:18.965Z,10.20
2022-10-23T06:12:47.781Z,10.18
2022-10-23T06:15:17.187Z,10.24
2022-10-23T06:18:02.099Z,10.34
2022-10-23T06:20:33.013Z,10.44
2022-10-23T06:23:07.480Z,10.53
2022-10-23T06:25:58.115Z,10.60
2022-10-23T06:28:51.988Z,10.63
2022-10-23T06:31:21.781Z,10.69
2022-10-23T06:33:51.652Z,10.72
2022-10-23T06:36:20.729Z,10.67
2022-10-23T06:38:49.939Z,10.65
2022-10-23T06:41:20.189Z,10.67
2022-10-23T06:43:51.509Z,10.69
2022-10-23T06:46:35.133Z,10.75
2022-10-23T06:49:21.279Z,10.85
2022-10-23T06:51:49.396Z,10.96
2022-10-23T06:54:18.208Z,11.09
2022-10-23T06:56:51.823Z,11.18
2022-10-23T06:59:23.404Z,11.27
2022-10-23T07:04:26.129Z,11.46
2022-10-23T07:06:57.742Z,11.60
2022-10-23T07:09:30.853Z,11.75
2022-10-23T07:12:00.213Z,11.91
2022-10-23T07:14:36.208Z,12.08
2022-10-23T07:17:07.685Z,12.22
2022-10-23T07:19:35.447Z,12.36
2022-10-23T07:22:13.443Z,12.48
2022-10-23T07:24:54.430Z,12.61
2022-10-23T07:27:26.882Z,12.77
2022-10-23T07:30:00.289Z,12.96
2022-10-23T07:32:31.206Z,13.20
2022-10-23T07:35:18.022Z,13.42
2022-10-23T07:37:56.752Z,13.53
2022-10-23T07:40:32.941Z,13.58
2022-10-23T07:43:10.132Z,13.53
2022-10-23T07:45:43.535Z,13.50
2022-10-23T07:48:24.790Z,13.53
2022-10-23T07:51:11.701Z,13.62
2022-10-23T07:53:56.600Z,13.76
2022-10-23T07:57:04.273Z,13.92
2022-10-23T08:00:02.680Z,14.06
2022-10-23T08:02:45.353Z,14.20
2022-10-23T08:05:13.360Z,14.33
2022-10-23T08:07:56.067Z,14.39
2022-10-23T08:10:23.964Z,14.45
2022-10-23T08:12:51.935Z,14.55
2022-10-23T08:15:34.102Z,14.61
2022-10-23T08:18:15.529Z,14.64
2022-10-23T08:20:52.406Z,14.70
2022-10-23T08:23:29.089Z,14.83
2022-10-23T08:26:05.437Z,15.02
2022-10-23T08:28:37.573Z,15.15
2022-10-23T08:31:25.671Z,15.30
2022-10-23T08:34:18.812Z,15.48
2022-10-23T08:36:48.085Z,15.66
2022-10-23T08:39:19.569Z,15.88
2022-10-23T08:42:27.653Z,16.10
2022-10-23T08:45:13.899Z,16.29
2022-10-23T08:48:03.371Z,16.42
2022-10-23T08:51:22.497Z,16.73
2022-10-23T08:54:12.856Z,17.00
2022-10-23T08:57:08.811Z,17.24
2022-10-23T08:59:43.743Z,17.47
2022-10-23T09:02:22.409Z,17.68
2022-10-23T09:05:02.341Z,17.81
2022-10-23T09:08:16.308Z,18.01
2022-10-23T09:11:22.180Z,18.35
2022-10-23T09:14:19.126Z,18.61
2022-10-23T09:17:11.231Z,18.87
2022-10-23T09:19:46.402Z,19.14
2022-10-23T09:22:14.376Z,19.34
2022-10-23T09:24:53.693Z,19.59
2022-10-23T09:27:31.524Z,19.85
2022-10-23T09:30:28.962Z,20.03
2022-10-23T09:33:26.706Z,20.21
2022-10-23T09:35:59.582Z,20.40
2022-10-23T09:38:40.268Z,20.57
2022-10-23T09:41:33.951Z,20.69
2022-10-23T09:44:24.912Z,20.87
2022-10-23T09:47:27.890Z,20.99
2022-10-23T09:50:19.933Z,21.10
2022-10-23T09:53:02.066Z,21.30
2022-10-23T09:55:36.086Z,21.42
2022-10-23T09:58:05.441Z,21.46
2022-10-23T10:00:34.402Z,21.56
2022-10-23T10:03:18.241Z,21.61
2022-10-23T10:06:37.503Z,21.87
2022-10-23T10:09:20.208Z,22.23
2022-10-23T10:12:52.080Z,22.60
2022-10-23T10:16:09.011Z,22.88
2022-10-23T10:19:10.863Z,23.19
2022-10-23T10:22:01.615Z,23.36
2022-10-23T10:25:18.054Z,23.27
2022-10-23T10:28:00.372Z,23.05
2022-10-23T10:30:45.021Z,22.67
2022-10-23T10:33:42.836Z,22.40
2022-10-23T10:39:35.095Z,21.70
2022-10-23T10:42:39.646Z,21.43
2022-10-23T10:45:49.715Z,21.40
2022-10-23T10:49:04.962Z,21.62
2022-10-23T10:52:29.456Z,21.58
2022-10-23T10:55:23.785Z,21.87
2022-10-23T10:58:25.973Z,22.26
2022-10-23T11:00:59.327Z,22.57
2022-10-23T11:03:39.151Z,22.81
2022-10-23T11:10:18.859Z,23.01
2022-10-23T11:13:06.463Z,22.74
2022-10-23T11:15:40.716Z,22.38
2022-10-23T11:18:27.484Z,22.38
2022-10-23T11:21:18.167Z,22.61
2022-10-23T11:24:04.369Z,22.89
2022-10-23T11:27:05.964Z,23.21
2022-10-23T11:29:46.455Z,23.35
2022-10-23T11:32:29.362Z,23.47
2022-10-23T11:35:18.906Z,23.58
2022-10-23T11:38:09.991Z,23.73
2022-10-23T11:41:18.975Z,23.77
2022-10-23T11:44:11.169Z,23.82
2022-10-23T11:47:06.122Z,23.88
2022-10-23T11:49:41.038Z,23.98
2022-10-23T11:52:24.113Z,24.14
2022-10-23T11:55:30.908Z,24.30
2022-10-23T12:03:04.241Z,24.22
2022-10-23T12:16:01.305Z,23.65
2022-10-23T12:18:29.246Z,23.75
2022-10-23T12:21:02.244Z,23.67
2022-10-23T12:23:42.126Z,23.59
2022-10-23T12:26:31.323Z,23.52
2022-10-23T12:29:15.454Z,23.41
2022-10-23T12:32:27.372Z,23.28
2022-10-23T12:35:19.491Z,23.21
2022-10-23T12:38:14.807Z,23.25
2022-10-23T12:40:46.836Z,23.36
2022-10-23T12:43:35.398Z,23.48
2022-10-23T12:46:18.107Z,23.68
2022-10-23T12:48:49.729Z,23.82
2022-10-23T12:51:26.708Z,23.94
2022-10-23T12:53:54.949Z,23.87
2022-10-23T12:56:24.897Z,23.83
2022-10-23T12:58:57.346Z,23.62
2022-10-23T13:01:32.472Z,23.60
2022-10-23T13:06:47.667Z,24.35
2022-10-23T13:09:23.343Z,24.53
2022-10-23T13:12:27.332Z,24.93
2022-10-23T13:15:06.126Z,25.34
2022-10-23T13:17:43.631Z,25.60
2022-10-23T13:20:18.245Z,25.76
2022-10-23T13:23:00.257Z,26.03
2022-10-23T13:25:34.118Z,26.34
2022-10-23T13:28:28.949Z,26.63
2022-10-23T13:31:05.586Z,26.78
2022-10-23T13:33:53.417Z,27.02
2022-10-23T13:36:23.903Z,27.23
2022-10-23T13:39:09.960Z,27.23
2022-10-23T13:41:46.056Z,27.13
2022-10-23T13:44:17.443Z,27.21
2022-10-23T13:46:45.396Z,26.89
2022-10-23T13:49:13.193Z,26.48
2022-10-23T13:51:53.070Z,25.99
2022-10-23T13:54:23.857Z,25.72
2022-10-23T13:56:52.501Z,25.62
2022-10-23T13:59:20.466Z,26.04
2022-10-23T14:01:50.218Z,26.30
2022-10-23T14:04:19.449Z,26.61
2022-10-23T14:06:47.473Z,26.72
2022-10-23T14:09:18.541Z,26.27
2022-10-23T14:11:46.435Z,25.72
2022-10-23T14:14:14.230Z,25.60
2022-10-23T14:16:42.038Z,25.58
2022-10-23T14:19:11.641Z,25.96
2022-10-23T14:21:39.932Z,26.01
2022-10-23T14:24:09.158Z,25.88
2022-10-23T14:26:37.642Z,25.59
2022-10-23T14:29:09.771Z,25.33
2022-10-23T14:31:39.340Z,25.00
2022-10-23T14:34:07.560Z,24.58
2022-10-23T14:36:49.275Z,24.17
2022-10-23T14:39:18.666Z,23.80
2022-10-23T14:41:47.344Z,23.47
2022-10-23T14:44:15.147Z,23.15
2022-10-23T14:46:42.994Z,22.86
2022-10-23T14:49:10.874Z,22.61
2022-10-23T14:51:38.688Z,22.30
2022-10-23T14:54:07.788Z,21.91
2022-10-23T14:56:37.991Z,21.51
2022-10-23T14:59:06.646Z,21.21
2022-10-23T15:01:41.249Z,20.95
2022-10-23T15:04:14.760Z,20.67
2022-10-23T15:06:43.457Z,20.41
2022-10-23T15:09:11.249Z,20.19
2022-10-23T15:11:39.480Z,19.98
2022-10-23T15:14:07.736Z,19.79
2022-10-23T15:16:41.522Z,19.58
2022-10-23T15:19:18.193Z,19.37
2022-10-23T15:21:47.929Z,19.13
2022-10-23T15:24:17.158Z,18.96
2022-10-23T15:26:45.319Z,18.79
2022-10-23T15:29:14.728Z,18.64
2022-10-23T15:32:13.762Z,18.50
2022-10-23T15:34:42.890Z,18.30
2022-10-23T15:37:11.280Z,18.14
2022-10-23T15:39:39.110Z,18.00
2022-10-23T15:42:07.169Z,17.89
2022-10-23T15:44:35.053Z,17.76
2022-10-23T15:47:03.001Z,17.65
2022-10-23T15:49:30.911Z,17.53
2022-10-23T15:51:59.413Z,17.43
2022-10-23T15:54:30.497Z,17.34
2022-10-23T15:57:02.262Z,17.25
2022-10-23T15:59:32.061Z,17.16
2022-10-23T16:02:00.001Z,17.07
2022-10-23T16:04:28.740Z,16.98
2022-10-23T16:06:56.984Z,16.89
2022-10-23T16:09:24.792Z,16.80
2022-10-23T16:11:52.551Z,16.70
2022-10-23T16:14:20.376Z,16.63
2022-10-23T16:16:48.228Z,16.59
2022-10-23T16:19:16.025Z,16.54
2022-10-23T16:21:43.872Z,16.49
2022-10-23T16:24:11.828Z,16.43
2022-10-23T16:26:39.923Z,16.39
2022-10-23T16:29:09.325Z,16.33
2022-10-23T16:31:37.621Z,16.26
2022-10-23T16:34:06.719Z,16.21
2022-10-23T16:36:35.300Z,16.15
2022-10-23T16:39:29.754Z,16.06
2022-10-23T16:45:12.014Z,15.90
2022-10-23T16:47:39.962Z,15.86
2022-10-23T16:50:08.503Z,15.83
2022-10-23T16:52:36.431Z,15.78
2022-10-23T16:55:07.174Z,15.75
2022-10-23T16:57:36.101Z,15.72
2022-10-23T17:00:05.475Z,15.65
2022-10-23T17:02:35.511Z,15.61
2022-10-23T17:05:03.954Z,15.56
2022-10-23T17:07:32.613Z,15.52
2022-10-23T17:10:00.753Z,15.45
2022-10-23T17:12:28.667Z,15.41
2022-10-23T17:14:56.660Z,15.38
2022-10-23T17:17:24.807Z,15.36
2022-10-23T17:19:52.674Z,15.33
2022-10-23T17:22:20.819Z,15.31
2022-10-23T17:24:51.474Z,15.28
2022-10-23T17:27:21.849Z,15.25
2022-10-23T17:29:49.652Z,15.23
2022-10-23T17:32:17.710Z,15.21
2022-10-23T17:34:46.658Z,15.15
2022-10-23T17:37:14.517Z,15.12
2022-10-23T17:39:42.317Z,15.08
2022-10-23T17:42:10.260Z,15.06
2022-10-23T17:44:38.073Z,15.05
2022-10-23T17:47:05.846Z,15.03
2022-10-23T17:49:33.696Z,14.99
2022-10-23T17:52:02.107Z,14.94
2022-10-23T17:54:30.294Z,14.92
2022-10-23T17:56:58.851Z,14.88
2022-10-23T17:59:26.973Z,14.81
2022-10-23T18:01:55.968Z,14.78
2022-10-23T18:04:25.296Z,14.74
2022-10-23T18:06:53.644Z,14.72
2022-10-23T18:09:22.608Z,14.72
2022-10-23T18:11:50.838Z,14.73
2022-10-23T18:14:20.319Z,14.73
2022-10-23T18:16:49.560Z,14.71
2022-10-23T18:19:18.480Z,14.71
2022-10-23T18:21:47.430Z,14.67
2022-10-23T18:24:15.924Z,14.63
2022-10-23T18:26:44.372Z,14.62
2022-10-23T18:29:12.771Z,14.58
2022-10-23T18:31:41.532Z,14.57
2022-10-23T18:34:21.552Z,14.58
2022-10-23T18:36:51.314Z,14.58
2022-10-23T18:39:22.517Z,14.56
2022-10-23T18:41:56.317Z,14.52
2022-10-23T18:44:26.951Z,14.49
2022-10-23T18:46:57.055Z,14.48
2022-10-23T18:49:25.163Z,14.47
2022-10-23T18:51:53.333Z,14.45
2022-10-23T18:54:21.823Z,14.44
2022-10-23T18:56:50.211Z,14.44
2022-10-23T18:59:20.171Z,14.43
2022-10-23T19:01:49.004Z,14.42
2022-10-23T19:04:18.386Z,14.42
2022-10-23T19:06:47.779Z,14.42
2022-10-23T19:09:15.911Z,14.39
2022-10-23T19:11:44.068Z,14.39
2022-10-23T19:14:11.957Z,14.39
2022-10-23T19:16:45.325Z,14.39
2022-10-23T19:19:20.605Z,14.37
2022-10-23T19:21:49.247Z,14.34
2022-10-23T19:24:23.241Z,14.34
2022-10-23T19:26:51.106Z,14.33
2022-10-23T19:29:22.007Z,14.30
2022-10-23T19:31:50.751Z,14.29
2022-10-23T19:34:20.180Z,14.30
2022-10-23T19:36:48.760Z,14.29
2022-10-23T19:39:17.170Z,14.30
2022-10-23T19:41:45.648Z,14.32
2022-10-23T19:44:14.503Z,14.32
2022-10-23T19:46:42.350Z,14.29
2022-10-23T19:49:10.791Z,14.28
2022-10-23T19:51:39.512Z,14.25
2022-10-23T19:54:07.499Z,14.18
2022-10-23T19:56:36.150Z,14.12
2022-10-23T19:59:04.345Z,14.07
2022-10-23T20:01:32.347Z,14.03
2022-10-23T20:04:00.444Z,13.97
2022-10-23T20:06:31.949Z,13.86
2022-10-23T20:09:01.264Z,13.81
2022-10-23T20:11:30.616Z,13.78
2022-10-23T20:13:59.222Z,13.81
2022-10-23T20:16:33.510Z,13.83
2022-10-23T20:19:06.955Z,13.86
2022-10-23T20:21:35.986Z,13.87
2022-10-23T20:24:04.015Z,13.93
2022-10-23T20:26:32.042Z,13.95
2022-10-23T20:28:59.909Z,13.95
2022-10-23T20:31:27.880Z,13.93
2022-10-23T20:33:56.407Z,13.94
2022-10-23T20:36:46.688Z,13.93
2022-10-23T20:39:18.798Z,13.91
2022-10-23T20:41:47.578Z,13.90
2022-10-23T20:46:49.952Z,13.94
2022-10-23T20:49:18.921Z,13.96
2022-10-23T20:51:54.866Z,13.97
2022-10-23T20:54:28.646Z,13.96
2022-10-23T20:56:57.126Z,13.91
2022-10-23T20:59:25.466Z,13.86
2022-10-23T21:01:55.357Z,13.83
2022-10-23T21:04:26.480Z,13.82
2022-10-23T21:07:11.700Z,13.84
2022-10-23T21:09:40.217Z,13.84
2022-10-23T21:12:08.660Z,13.85
2022-10-23T21:14:36.680Z,13.82
2022-10-23T21:17:04.781Z,13.80
2022-10-23T21:19:32.582Z,13.82
2022-10-23T21:22:00.496Z,13.80
2022-10-23T21:24:28.223Z,13.81
2022-10-23T21:26:56.066Z,13.80
2022-10-23T21:29:23.931Z,13.80
2022-10-23T21:31:55.924Z,13.82
2022-10-23T21:34:25.394Z,13.85
2022-10-23T21:37:12.598Z,13.84
2022-10-23T21:39:42.852Z,13.82
2022-10-23T21:42:12.057Z,13.79
2022-10-23T21:44:40.210Z,13.77
2022-10-23T21:47:08.096Z,13.75
2022-10-23T21:49:35.917Z,13.78
2022-10-23T21:52:04.243Z,13.78
2022-10-23T21:54:32.043Z,13.76
2022-10-23T21:56:59.872Z,13.76
2022-10-23T21:59:30.139Z,13.77
2022-10-23T22:01:59.761Z,13.78
2022-10-23T22:04:27.687Z,13.78
2022-10-23T22:06:55.675Z,13.79
2022-10-23T22:09:23.569Z,13.81
2022-10-23T22:11:52.616Z,13.85
2022-10-23T22:14:21.896Z,13.84
2022-10-23T22:16:49.783Z,13.79
2022-10-23T22:19:18.688Z,13.77
2022-10-23T22:21:47.924Z,13.77
2022-10-23T22:24:16.331Z,13.75
2022-10-23T22:26:47.717Z,13.74
2022-10-23T22:29:18.286Z,13.74
2022-10-23T22:31:48.949Z,13.70
2022-10-23T22:34:34.169Z,13.66
2022-10-23T22:37:09.951Z,13.59
2022-10-23T22:40:35.945Z,13.52
2022-10-23T22:43:04.066Z,13.48
2022-10-23T22:45:31.797Z,13.45
2022-10-23T22:47:59.531Z,13.46
2022-10-23T22:50:27.627Z,13.48
2022-10-23T22:52:55.362Z,13.50
2022-10-23T22:55:23.125Z,13.49
2022-10-23T22:57:50.892Z,13.48
2022-10-23T23:01:38.416Z,13.48
2022-10-23T23:04:19.744Z,13.44
2022-10-23T23:06:54.376Z,13.45
2022-10-23T23:09:22.300Z,13.43
2022-10-23T23:11:52.025Z,13.44
2022-10-23T23:14:23.625Z,13.44
2022-10-23T23:16:54.464Z,13.46
2022-10-23T23:19:23.291Z,13.46
2022-10-23T23:21:51.186Z,13.48
2022-10-23T23:24:18.976Z,13.47
2022-10-23T23:26:46.790Z,13.47
2022-10-23T23:29:14.553Z,13.51
2022-10-23T23:31:45.976Z,13.52
2022-10-23T23:34:14.010Z,13.55
2022-10-23T23:36:41.798Z,13.54
2022-10-23T23:39:10.436Z,13.55
2022-10-23T23:41:38.387Z,13.58
2022-10-23T23:44:06.602Z,13.54
2022-10-23T23:46:34.405Z,13.54
2022-10-23T23:49:02.218Z,13.56
2022-10-23T23:51:30.373Z,13.60
2022-10-23T23:53:58.135Z,13.65
2022-10-23T23:56:25.987Z,13.67
2022-10-23T23:58:53.742Z,13.70
